sensor_id;sensor_type;location;lat;lon;timestamp;pressure;altitude;pressure_sealevel;temperature;humidity
48968;BME280;46511;53.148;8.204;2022-09-09T00:01:50;100752.97;;;16.03;100.00
48968;BME280;46511;53.148;8.204;2022-09-09T00:07:07;100755.88;;;15.89;100.00
48968;BME280;46511;53.148;8.204;2022-09-09T00:09:49;100757.22;;;15.83;100.00
48968;BME280;46511;53.148;8.204;2022-09-09T00:21:56;100742.59;;;15.87;100.00
48968;BME280;46511;53.148;8.204;2022-09-09T00:24:38;100749.06;;;15.85;100.00
48968;BME280;46511;53.148;8.204;2022-09-09T00:27:40;100749.78;;;15.76;100.00
48968;BME280;46511;53.148;8.204;2022-09-09T00:30:18;100753.44;;;15.75;100.00
48968;BME280;46511;53.148;8.204;2022-09-09T00:32:54;100746.34;;;15.62;100.00
48968;BME280;46511;53.148;8.204;2022-09-09T00:35:31;100762.56;;;15.72;100.00
48968;BME280;46511;53.148;8.204;2022-09-09T00:38:10;100759.09;;;15.59;100.00
48968;BME280;46511;53.148;8.204;2022-09-09T00:43:32;100752.09;;;15.80;100.00
48968;BME280;46511;53.148;8.204;2022-09-09T00:46:26;100751.34;;;16.00;100.00
48968;BME280;46511;53.148;8.204;2022-09-09T00:52:08;100754.91;;;15.90;100.00
48968;BME280;46511;53.148;8.204;2022-09-09T00:57:58;100743.47;;;15.65;100.00
48968;BME280;46511;53.148;8.204;2022-09-09T01:00:31;100740.78;;;15.77;100.00
48968;BME280;46511;53.148;8.204;2022-09-09T01:09:04;100748.44;;;16.04;100.00
48968;BME280;46511;53.148;8.204;2022-09-09T01:19:45;100749.06;;;15.85;100.00
48968;BME280;46511;53.148;8.204;2022-09-09T01:28:16;100740.41;;;15.70;100.00
48968;BME280;46511;53.148;8.204;2022-09-09T01:30:53;100739.06;;;15.76;100.00
48968;BME280;46511;53.148;8.204;2022-09-09T01:33:27;100745.47;;;15.51;100.00
48968;BME280;46511;53.148;8.204;2022-09-09T01:36:00;100740.75;;;15.54;100.00
48968;BME280;46511;53.148;8.204;2022-09-09T01:38:37;100733.31;;;15.47;100.00
48968;BME280;46511;53.148;8.204;2022-09-09T01:41:08;100728.78;;;15.47;100.00
48968;BME280;46511;53.148;8.204;2022-09-09T01:43:35;100733.81;;;15.63;100.00
48968;BME280;46511;53.148;8.204;2022-09-09T01:46:06;100725.91;;;15.61;100.00
48968;BME280;46511;53.148;8.204;2022-09-09T01:48:38;100727.94;;;15.47;100.00
48968;BME280;46511;53.148;8.204;2022-09-09T01:51:12;100732.03;;;15.75;100.00
48968;BME280;46511;53.148;8.204;2022-09-09T01:53:43;100723.84;;;15.65;100.00
48968;BME280;46511;53.148;8.204;2022-09-09T01:56:33;100724.41;;;15.57;100.00
48968;BME280;46511;53.148;8.204;2022-09-09T02:08:09;100726.38;;;15.55;100.00
48968;BME280;46511;53.148;8.204;2022-09-09T02:11:06;100718.00;;;15.71;100.00
48968;BME280;46511;53.148;8.204;2022-09-09T02:13:48;100712.50;;;15.73;100.00
48968;BME280;46511;53.148;8.204;2022-09-09T02:16:26;100716.44;;;15.68;100.00
48968;BME280;46511;53.148;8.204;2022-09-09T02:21:46;100718.09;;;15.47;100.00
48968;BME280;46511;53.148;8.204;2022-09-09T02:24:18;100716.63;;;15.54;100.00
48968;BME280;46511;53.148;8.204;2022-09-09T02:26:50;100710.25;;;15.33;100.00
48968;BME280;46511;53.148;8.204;2022-09-09T02:29:33;100713.66;;;15.35;100.00
48968;BME280;46511;53.148;8.204;2022-09-09T02:32:03;100714.28;;;15.27;100.00
48968;BME280;46511;53.148;8.204;2022-09-09T02:34:49;100719.97;;;15.11;100.00
48968;BME280;46511;53.148;8.204;2022-09-09T02:37:20;100717.09;;;15.26;100.00
48968;BME280;46511;53.148;8.204;2022-09-09T02:39:55;100716.59;;;15.32;100.00
48968;BME280;46511;53.148;8.204;2022-09-09T02:42:27;100713.66;;;15.35;100.00
48968;BME280;46511;53.148;8.204;2022-09-09T02:44:58;100712.00;;;15.45;100.00
48968;BME280;46511;53.148;8.204;2022-09-09T02:47:31;100714.91;;;15.42;100.00
48968;BME280;46511;53.148;8.204;2022-09-09T02:50:15;100720.63;;;15.49;100.00
48968;BME280;46511;53.148;8.204;2022-09-09T02:52:54;100717.34;;;15.45;100.00
48968;BME280;46511;53.148;8.204;2022-09-09T02:55:39;100716.97;;;15.27;100.00
48968;BME280;46511;53.148;8.204;2022-09-09T02:58:17;100722.66;;;15.34;100.00
48968;BME280;46511;53.148;8.204;2022-09-09T03:00:50;100713.59;;;15.48;100.00
48968;BME280;46511;53.148;8.204;2022-09-09T03:03:22;100714.78;;;15.43;100.00
48968;BME280;46511;53.148;8.204;2022-09-09T03:05:54;100720.25;;;15.53;100.00
48968;BME280;46511;53.148;8.204;2022-09-09T03:08:25;100718.13;;;15.69;100.00
48968;BME280;46511;53.148;8.204;2022-09-09T03:10:58;100720.50;;;15.50;100.00
48968;BME280;46511;53.148;8.204;2022-09-09T03:13:32;100719.28;;;15.43;100.00
48968;BME280;46511;53.148;8.204;2022-09-09T03:16:03;100717.59;;;15.53;100.00
48968;BME280;46511;53.148;8.204;2022-09-09T03:18:35;100726.13;;;15.47;100.00
48968;BME280;46511;53.148;8.204;2022-09-09T03:21:06;100717.81;;;15.39;100.00
48968;BME280;46511;53.148;8.204;2022-09-09T03:23:38;100719.75;;;15.26;100.00
48968;BME280;46511;53.148;8.204;2022-09-09T03:26:09;100722.78;;;15.21;100.00
48968;BME280;46511;53.148;8.204;2022-09-09T03:28:41;100718.03;;;15.25;100.00
48968;BME280;46511;53.148;8.204;2022-09-09T03:31:13;100726.75;;;15.15;100.00
48968;BME280;46511;53.148;8.204;2022-09-09T03:33:44;100729.84;;;15.33;100.00
48968;BME280;46511;53.148;8.204;2022-09-09T03:36:15;100725.91;;;15.15;100.00
48968;BME280;46511;53.148;8.204;2022-09-09T03:38:48;100723.66;;;15.44;100.00
48968;BME280;46511;53.148;8.204;2022-09-09T03:41:19;100713.44;;;15.27;100.00
48968;BME280;46511;53.148;8.204;2022-09-09T03:43:52;100719.44;;;15.06;100.00
48968;BME280;46511;53.148;8.204;2022-09-09T03:46:20;100724.56;;;15.09;100.00
48968;BME280;46511;53.148;8.204;2022-09-09T03:48:52;100730.38;;;15.03;100.00
48968;BME280;46511;53.148;8.204;2022-09-09T03:51:23;100728.22;;;15.08;100.00
48968;BME280;46511;53.148;8.204;2022-09-09T03:53:55;100736.97;;;15.10;100.00
48968;BME280;46511;53.148;8.204;2022-09-09T03:56:27;100742.78;;;15.04;100.00
48968;BME280;46511;53.148;8.204;2022-09-09T03:58:58;100741.63;;;15.20;100.00
48968;BME280;46511;53.148;8.204;2022-09-09T04:01:30;100743.03;;;15.01;100.00
48968;BME280;46511;53.148;8.204;2022-09-09T04:03:56;100744.97;;;14.99;100.00
48968;BME280;46511;53.148;8.204;2022-09-09T04:06:29;100747.22;;;15.17;100.00
48968;BME280;46511;53.148;8.204;2022-09-09T04:09:00;100745.78;;;15.35;100.00
48968;BME280;46511;53.148;8.204;2022-09-09T04:11:34;100746.84;;;15.21;100.00
48968;BME280;46511;53.148;8.204;2022-09-09T04:14:05;100744.78;;;15.25;100.00
48968;BME280;46511;53.148;8.204;2022-09-09T04:16:36;100750.53;;;14.96;100.00
48968;BME280;46511;53.148;8.204;2022-09-09T04:19:08;100744.72;;;15.02;100.00
48968;BME280;46511;53.148;8.204;2022-09-09T04:21:40;100751.06;;;15.01;100.00
48968;BME280;46511;53.148;8.204;2022-09-09T04:24:12;100749.13;;;15.14;100.00
48968;BME280;46511;53.148;8.204;2022-09-09T04:26:43;100749.06;;;14.92;100.00
48968;BME280;46511;53.148;8.204;2022-09-09T04:29:09;100757.06;;;14.81;100.00
48968;BME280;46511;53.148;8.204;2022-09-09T04:31:41;100757.38;;;14.76;100.00
48968;BME280;46511;53.148;8.204;2022-09-09T04:34:12;100751.75;;;14.92;100.00
48968;BME280;46511;53.148;8.204;2022-09-09T04:36:44;100757.50;;;14.75;100.00
48968;BME280;46511;53.148;8.204;2022-09-09T04:39:15;100749.53;;;14.86;100.00
48968;BME280;46511;53.148;8.204;2022-09-09T04:41:41;100750.53;;;14.96;100.00
48968;BME280;46511;53.148;8.204;2022-09-09T04:44:07;100755.28;;;14.93;100.00
48968;BME280;46511;53.148;8.204;2022-09-09T04:46:39;100754.97;;;15.08;100.00
48968;BME280;46511;53.148;8.204;2022-09-09T04:49:11;100761.31;;;14.83;100.00
48968;BME280;46511;53.148;8.204;2022-09-09T04:51:42;100754.19;;;14.95;100.00
48968;BME280;46511;53.148;8.204;2022-09-09T04:54:14;100759.72;;;14.81;100.00
48968;BME280;46511;53.148;8.204;2022-09-09T04:56:45;100755.53;;;14.90;100.00
48968;BME280;46511;53.148;8.204;2022-09-09T04:59:17;100752.03;;;15.00;100.00
48968;BME280;46511;53.148;8.204;2022-09-09T05:01:48;100767.22;;;14.76;100.00
48968;BME280;46511;53.148;8.204;2022-09-09T05:04:21;100761.72;;;14.90;100.00
48968;BME280;46511;53.148;8.204;2022-09-09T05:06:52;100766.53;;;15.09;100.00
48968;BME280;46511;53.148;8.204;2022-09-09T05:09:18;100766.00;;;15.04;100.00
48968;BME280;46511;53.148;8.204;2022-09-09T05:11:45;100776.75;;;15.15;100.00
48968;BME280;46511;53.148;8.204;2022-09-09T05:14:17;100776.00;;;15.02;100.00
48968;BME280;46511;53.148;8.204;2022-09-09T05:16:48;100783.72;;;14.94;100.00
48968;BME280;46511;53.148;8.204;2022-09-09T05:19:20;100772.75;;;15.09;100.00
48968;BME280;46511;53.148;8.204;2022-09-09T05:21:51;100779.56;;;15.13;100.00
48968;BME280;46511;53.148;8.204;2022-09-09T05:24:23;100780.28;;;15.15;100.00
48968;BME280;46511;53.148;8.204;2022-09-09T05:26:54;100791.81;;;15.40;100.00
48968;BME280;46511;53.148;8.204;2022-09-09T05:29:29;100789.16;;;15.51;100.00
48968;BME280;46511;53.148;8.204;2022-09-09T05:32:00;100789.59;;;15.34;100.00
48968;BME280;46511;53.148;8.204;2022-09-09T05:34:26;100789.78;;;15.20;100.00
48968;BME280;46511;53.148;8.204;2022-09-09T05:36:58;100788.84;;;15.32;100.00
48968;BME280;46511;53.148;8.204;2022-09-09T05:39:29;100793.53;;;15.52;100.00
48968;BME280;46511;53.148;8.204;2022-09-09T05:42:00;100787.19;;;15.42;100.00
48968;BME280;46511;53.148;8.204;2022-09-09T05:44:33;100793.16;;;16.03;100.00
48968;BME280;46511;53.148;8.204;2022-09-09T05:47:05;100790.69;;;16.00;100.00
48968;BME280;46511;53.148;8.204;2022-09-09T05:49:36;100783.22;;;16.71;100.00
48968;BME280;46511;53.148;8.204;2022-09-09T05:52:07;100796.81;;;18.15;98.13
48968;BME280;46511;53.148;8.204;2022-09-09T05:54:40;100790.53;;;21.28;76.83
48968;BME280;46511;53.148;8.204;2022-09-09T05:57:13;100790.19;;;20.95;74.46
48968;BME280;46511;53.148;8.204;2022-09-09T05:59:44;100786.69;;;22.85;65.08
48968;BME280;46511;53.148;8.204;2022-09-09T06:02:15;100793.56;;;22.79;64.87
48968;BME280;46511;53.148;8.204;2022-09-09T06:04:47;100795.03;;;24.36;61.00
48968;BME280;46511;53.148;8.204;2022-09-09T06:07:18;100792.50;;;21.95;66.32
48968;BME280;46511;53.148;8.204;2022-09-09T06:09:49;100794.50;;;19.59;79.86
48968;BME280;46511;53.148;8.204;2022-09-09T06:12:22;100798.19;;;18.10;91.16
48968;BME280;46511;53.148;8.204;2022-09-09T06:14:53;100800.69;;;17.92;95.89
48968;BME280;46511;53.148;8.204;2022-09-09T06:17:24;100802.97;;;18.37;93.57
48968;BME280;46511;53.148;8.204;2022-09-09T06:19:56;100805.25;;;18.72;91.00
48968;BME280;46511;53.148;8.204;2022-09-09T06:22:27;100795.66;;;18.98;89.71
48968;BME280;46511;53.148;8.204;2022-09-09T06:24:59;100796.78;;;18.86;88.38
48968;BME280;46511;53.148;8.204;2022-09-09T06:27:27;100792.69;;;22.20;72.42
48968;BME280;46511;53.148;8.204;2022-09-09T06:29:59;100783.53;;;24.88;61.31
48968;BME280;46511;53.148;8.204;2022-09-09T06:32:30;100780.94;;;22.45;66.54
48968;BME280;46511;53.148;8.204;2022-09-09T06:35:05;100787.63;;;20.94;74.61
48968;BME280;46511;53.148;8.204;2022-09-09T06:37:37;100789.50;;;20.75;76.19
48968;BME280;46511;53.148;8.204;2022-09-09T06:40:08;100788.72;;;20.01;80.69
48968;BME280;46511;53.148;8.204;2022-09-09T06:42:40;100787.13;;;19.32;87.31
48968;BME280;46511;53.148;8.204;2022-09-09T06:45:11;100786.78;;;18.58;92.22
48968;BME280;46511;53.148;8.204;2022-09-09T06:47:43;100786.22;;;18.14;95.08
48968;BME280;46511;53.148;8.204;2022-09-09T06:50:14;100781.78;;;18.43;96.24
48968;BME280;46511;53.148;8.204;2022-09-09T06:52:47;100785.44;;;18.92;92.99
48968;BME280;46511;53.148;8.204;2022-09-09T06:55:18;100784.56;;;18.82;93.24
48968;BME280;46511;53.148;8.204;2022-09-09T06:57:50;100779.19;;;18.82;92.63
48968;BME280;46511;53.148;8.204;2022-09-09T07:00:21;100780.34;;;19.28;89.79
48968;BME280;46511;53.148;8.204;2022-09-09T07:02:53;100774.66;;;19.21;89.47
48968;BME280;46511;53.148;8.204;2022-09-09T07:05:24;100771.88;;;20.16;85.60
48968;BME280;46511;53.148;8.204;2022-09-09T07:07:57;100774.25;;;23.96;64.75
48968;BME280;46511;53.148;8.204;2022-09-09T07:10:29;100776.66;;;28.75;47.74
48968;BME280;46511;53.148;8.204;2022-09-09T07:13:00;100772.59;;;29.78;43.23
48968;BME280;46511;53.148;8.204;2022-09-09T07:15:33;100774.59;;;28.84;44.53
48968;BME280;46511;53.148;8.204;2022-09-09T07:18:02;100772.13;;;29.15;44.92
48968;BME280;46511;53.148;8.204;2022-09-09T07:20:34;100781.09;;;28.28;44.82
48968;BME280;46511;53.148;8.204;2022-09-09T07:23:00;100785.47;;;25.71;50.71
48968;BME280;46511;53.148;8.204;2022-09-09T07:25:31;100787.19;;;24.72;55.38
48968;BME280;46511;53.148;8.204;2022-09-09T07:28:02;100785.00;;;26.12;51.80
48968;BME280;46511;53.148;8.204;2022-09-09T07:30:34;100799.44;;;25.68;52.69
48968;BME280;46511;53.148;8.204;2022-09-09T07:33:05;100786.69;;;26.93;48.34
48968;BME280;46511;53.148;8.204;2022-09-09T07:35:32;100792.91;;;26.22;51.05
48968;BME280;46511;53.148;8.204;2022-09-09T07:38:03;100785.47;;;26.60;49.87
48968;BME280;46511;53.148;8.204;2022-09-09T07:40:37;100789.28;;;27.01;48.73
48968;BME280;46511;53.148;8.204;2022-09-09T07:43:09;100789.72;;;26.47;50.20
48968;BME280;46511;53.148;8.204;2022-09-09T07:45:40;100787.19;;;28.71;43.54
48968;BME280;46511;53.148;8.204;2022-09-09T07:48:12;100787.50;;;30.09;42.19
48968;BME280;46511;53.148;8.204;2022-09-09T07:50:44;100781.59;;;31.08;39.40
48968;BME280;46511;53.148;8.204;2022-09-09T07:53:15;100774.59;;;31.12;38.52
48968;BME280;46511;53.148;8.204;2022-09-09T07:55:46;100790.09;;;28.63;43.22
48968;BME280;46511;53.148;8.204;2022-09-09T07:58:18;100786.03;;;29.27;42.16
48968;BME280;46511;53.148;8.204;2022-09-09T08:00:49;100796.47;;;27.24;46.11
48968;BME280;46511;53.148;8.204;2022-09-09T08:03:20;100798.06;;;26.31;51.04
48968;BME280;46511;53.148;8.204;2022-09-09T08:05:52;100790.22;;;27.09;47.54
48968;BME280;46511;53.148;8.204;2022-09-09T08:08:19;100797.03;;;25.27;51.52
48968;BME280;46511;53.148;8.204;2022-09-09T08:10:50;100796.88;;;23.88;58.08
48968;BME280;46511;53.148;8.204;2022-09-09T08:13:23;100790.28;;;26.79;49.25
48968;BME280;46511;53.148;8.204;2022-09-09T08:15:54;100785.50;;;27.67;45.59
48968;BME280;46511;53.148;8.204;2022-09-09T08:18:26;100797.91;;;26.47;48.73
48968;BME280;46511;53.148;8.204;2022-09-09T08:21:04;100783.66;;;27.24;46.19
48968;BME280;46511;53.148;8.204;2022-09-09T08:23:40;100782.94;;;27.37;45.77
48968;BME280;46511;53.148;8.204;2022-09-09T08:26:13;100771.31;;;29.41;41.90
48968;BME280;46511;53.148;8.204;2022-09-09T08:28:46;100774.44;;;29.98;39.10
48968;BME280;46511;53.148;8.204;2022-09-09T08:31:18;100789.41;;;29.89;40.46
48968;BME280;46511;53.148;8.204;2022-09-09T08:33:52;100785.84;;;28.54;42.79
48968;BME280;46511;53.148;8.204;2022-09-09T08:36:25;100790.41;;;30.27;40.69
48968;BME280;46511;53.148;8.204;2022-09-09T08:38:57;100784.50;;;27.68;44.45
48968;BME280;46511;53.148;8.204;2022-09-09T08:47:25;100780.88;;;27.39;46.51
48968;BME280;46511;53.148;8.204;2022-09-09T08:53:05;100792.41;;;29.67;41.76
48968;BME280;46511;53.148;8.204;2022-09-09T08:55:56;100789.78;;;30.25;39.21
48968;BME280;46511;53.148;8.204;2022-09-09T08:58:31;100784.84;;;32.90;35.09
48968;BME280;46511;53.148;8.204;2022-09-09T09:03:43;100812.25;;;26.92;45.82
48968;BME280;46511;53.148;8.204;2022-09-09T09:12:02;100807.06;;;27.83;43.42
48968;BME280;46511;53.148;8.204;2022-09-09T09:14:46;100815.00;;;27.56;44.49
48968;BME280;46511;53.148;8.204;2022-09-09T09:17:19;100816.88;;;26.56;47.44
48968;BME280;46511;53.148;8.204;2022-09-09T09:19:48;100822.44;;;25.57;50.85
48968;BME280;46511;53.148;8.204;2022-09-09T09:22:21;100822.00;;;25.91;49.42
48968;BME280;46511;53.148;8.204;2022-09-09T09:25:08;100827.19;;;25.18;53.11
48968;BME280;46511;53.148;8.204;2022-09-09T09:30:48;100823.97;;;25.98;49.94
48968;BME280;46511;53.148;8.204;2022-09-09T09:33:26;100817.50;;;26.72;48.79
48968;BME280;46511;53.148;8.204;2022-09-09T09:36:04;100812.28;;;28.12;44.79
48968;BME280;46511;53.148;8.204;2022-09-09T09:38:37;100825.41;;;26.53;47.69
48968;BME280;46511;53.148;8.204;2022-09-09T09:41:08;100824.19;;;24.42;55.54
48968;BME280;46511;53.148;8.204;2022-09-09T09:43:40;100814.91;;;27.43;47.45
48968;BME280;46511;53.148;8.204;2022-09-09T09:46:20;100812.94;;;30.36;39.58
48968;BME280;46511;53.148;8.204;2022-09-09T09:48:57;100808.81;;;31.41;37.69
48968;BME280;46511;53.148;8.204;2022-09-09T09:51:29;100802.13;;;33.62;32.36
48968;BME280;46511;53.148;8.204;2022-09-09T09:54:13;100817.31;;;26.15;47.36
48968;BME280;46511;53.148;8.204;2022-09-09T09:56:54;100820.28;;;25.76;49.36
48968;BME280;46511;53.148;8.204;2022-09-09T10:05:13;100822.28;;;24.82;54.19
48968;BME280;46511;53.148;8.204;2022-09-09T10:08:05;100807.44;;;26.14;50.11
48968;BME280;46511;53.148;8.204;2022-09-09T10:19:13;100824.00;;;26.57;46.54
48968;BME280;46511;53.148;8.204;2022-09-09T10:22:10;100801.38;;;27.84;44.20
48968;BME280;46511;53.148;8.204;2022-09-09T10:27:27;100803.78;;;26.66;47.60
48968;BME280;46511;53.148;8.204;2022-09-09T10:30:21;100800.84;;;25.41;50.93
48968;BME280;46511;53.148;8.204;2022-09-09T10:35:42;100808.03;;;24.80;52.22
48968;BME280;46511;53.148;8.204;2022-09-09T10:38:29;100820.97;;;25.92;49.70
48968;BME280;46511;53.148;8.204;2022-09-09T10:55:10;100811.25;;;27.85;42.89
48968;BME280;46511;53.148;8.204;2022-09-09T10:57:55;100814.47;;;25.56;47.71
48968;BME280;46511;53.148;8.204;2022-09-09T11:00:34;100806.63;;;25.99;48.43
48968;BME280;46511;53.148;8.204;2022-09-09T11:03:15;100815.81;;;25.37;48.32
48968;BME280;46511;53.148;8.204;2022-09-09T11:05:58;100817.13;;;27.12;45.36
48968;BME280;46511;53.148;8.204;2022-09-09T11:08:36;100801.66;;;29.79;39.00
48968;BME280;46511;53.148;8.204;2022-09-09T11:13:49;100814.03;;;28.55;40.78
48968;BME280;46511;53.148;8.204;2022-09-09T11:16:28;100807.56;;;29.76;38.66
48968;BME280;46511;53.148;8.204;2022-09-09T11:21:48;100805.56;;;28.97;40.32
48968;BME280;46511;53.148;8.204;2022-09-09T11:24:24;100814.06;;;30.15;38.39
48968;BME280;46511;53.148;8.204;2022-09-09T11:27:15;100803.75;;;32.50;33.70
48968;BME280;46511;53.148;8.204;2022-09-09T11:32:52;100814.25;;;29.94;37.90
48968;BME280;46511;53.148;8.204;2022-09-09T11:38:25;100804.38;;;31.40;35.28
48968;BME280;46511;53.148;8.204;2022-09-09T11:41:02;100799.94;;;27.60;43.01
48968;BME280;46511;53.148;8.204;2022-09-09T11:43:53;100816.13;;;25.19;51.59
48968;BME280;46511;53.148;8.204;2022-09-09T11:46:31;100799.91;;;24.49;55.67
48968;BME280;46511;53.148;8.204;2022-09-09T11:49:23;100806.19;;;23.78;58.17
48968;BME280;46511;53.148;8.204;2022-09-09T11:52:24;100803.34;;;23.63;60.13
48968;BME280;46511;53.148;8.204;2022-09-09T11:55:25;100810.03;;;22.86;63.09
48968;BME280;46511;53.148;8.204;2022-09-09T12:00:45;100812.31;;;18.73;100.00
48968;BME280;46511;53.148;8.204;2022-09-09T12:06:27;100804.28;;;20.71;100.00
48968;BME280;46511;53.148;8.204;2022-09-09T12:09:06;100798.91;;;23.21;100.00
48968;BME280;46511;53.148;8.204;2022-09-09T12:11:46;100804.94;;;21.01;100.00
48968;BME280;46511;53.148;8.204;2022-09-09T12:19:47;100816.13;;;20.88;100.00
48968;BME280;46511;53.148;8.204;2022-09-09T12:28:19;100824.72;;;19.14;100.00
48968;BME280;46511;53.148;8.204;2022-09-09T12:33:36;100822.03;;;20.37;100.00
48968;BME280;46511;53.148;8.204;2022-09-09T12:36:18;100822.75;;;20.11;100.00
48968;BME280;46511;53.148;8.204;2022-09-09T12:38:52;100830.94;;;20.57;100.00
48968;BME280;46511;53.148;8.204;2022-09-09T12:41:26;100820.75;;;20.41;100.00
48968;BME280;46511;53.148;8.204;2022-09-09T12:44:05;100817.56;;;20.82;100.00
48968;BME280;46511;53.148;8.204;2022-09-09T12:46:41;100813.84;;;21.29;100.00
48968;BME280;46511;53.148;8.204;2022-09-09T12:51:56;100812.78;;;21.12;97.31
48968;BME280;46511;53.148;8.204;2022-09-09T12:54:28;100808.09;;;21.14;94.04
48968;BME280;46511;53.148;8.204;2022-09-09T12:56:59;100804.41;;;21.15;94.48
48968;BME280;46511;53.148;8.204;2022-09-09T12:59:38;100798.38;;;20.86;90.93
48968;BME280;46511;53.148;8.204;2022-09-09T13:02:22;100793.34;;;20.91;91.63
48968;BME280;46511;53.148;8.204;2022-09-09T13:05:05;100785.00;;;20.66;86.37
48968;BME280;46511;53.148;8.204;2022-09-09T13:07:38;100784.81;;;20.95;86.44
48968;BME280;46511;53.148;8.204;2022-09-09T13:10:12;100794.81;;;20.67;88.92
48968;BME280;46511;53.148;8.204;2022-09-09T13:12:45;100791.56;;;20.81;86.77
48968;BME280;46511;53.148;8.204;2022-09-09T13:15:19;100783.72;;;20.88;86.84
48968;BME280;46511;53.148;8.204;2022-09-09T13:17:59;100792.97;;;20.86;82.90
48968;BME280;46511;53.148;8.204;2022-09-09T13:20:34;100787.88;;;21.54;84.56
48968;BME280;46511;53.148;8.204;2022-09-09T13:23:09;100794.47;;;21.33;81.98
48968;BME280;46511;53.148;8.204;2022-09-09T13:25:52;100788.28;;;21.23;81.01
48968;BME280;46511;53.148;8.204;2022-09-09T13:28:31;100798.44;;;20.94;80.53
48968;BME280;46511;53.148;8.204;2022-09-09T13:31:05;100807.88;;;21.25;80.12
48968;BME280;46511;53.148;8.204;2022-09-09T13:33:50;100805.31;;;21.24;82.03
48968;BME280;46511;53.148;8.204;2022-09-09T13:36:28;100811.13;;;21.29;81.79
48968;BME280;46511;53.148;8.204;2022-09-09T13:39:02;100802.94;;;21.38;80.84
48968;BME280;46511;53.148;8.204;2022-09-09T13:41:35;100815.81;;;21.62;80.45
48968;BME280;46511;53.148;8.204;2022-09-09T13:44:14;100813.34;;;21.77;78.15
48968;BME280;46511;53.148;8.204;2022-09-09T13:47:01;100810.94;;;21.92;77.33
48968;BME280;46511;53.148;8.204;2022-09-09T13:49:32;100814.34;;;22.20;76.93
48968;BME280;46511;53.148;8.204;2022-09-09T13:52:11;100815.00;;;23.47;71.86
48968;BME280;46511;53.148;8.204;2022-09-09T13:54:48;100810.59;;;23.46;70.63
48968;BME280;46511;53.148;8.204;2022-09-09T13:57:16;100808.84;;;24.10;67.64
48968;BME280;46511;53.148;8.204;2022-09-09T13:59:49;100807.72;;;23.56;68.58
48968;BME280;46511;53.148;8.204;2022-09-09T14:02:21;100812.31;;;22.72;71.19
48968;BME280;46511;53.148;8.204;2022-09-09T14:04:54;100821.56;;;22.11;73.55
48968;BME280;46511;53.148;8.204;2022-09-09T14:07:26;100813.44;;;21.42;73.43
48968;BME280;46511;53.148;8.204;2022-09-09T14:09:58;100815.44;;;21.39;72.84
48968;BME280;46511;53.148;8.204;2022-09-09T14:12:31;100811.44;;;21.70;70.17
48968;BME280;46511;53.148;8.204;2022-09-09T14:15:03;100807.44;;;22.34;67.10
48968;BME280;46511;53.148;8.204;2022-09-09T14:17:36;100801.34;;;22.06;66.59
48968;BME280;46511;53.148;8.204;2022-09-09T14:20:07;100804.44;;;21.59;67.20
48968;BME280;46511;53.148;8.204;2022-09-09T14:22:39;100807.09;;;22.03;66.61
48968;BME280;46511;53.148;8.204;2022-09-09T14:25:10;100789.94;;;23.13;63.00
48968;BME280;46511;53.148;8.204;2022-09-09T14:27:44;100801.69;;;22.03;66.24
48968;BME280;46511;53.148;8.204;2022-09-09T14:30:16;100797.50;;;22.42;65.37
48968;BME280;46511;53.148;8.204;2022-09-09T14:32:48;100801.16;;;22.25;65.71
48968;BME280;46511;53.148;8.204;2022-09-09T14:35:19;100794.25;;;22.31;66.64
48968;BME280;46511;53.148;8.204;2022-09-09T14:37:50;100797.47;;;22.00;68.19
48968;BME280;46511;53.148;8.204;2022-09-09T14:40:22;100797.38;;;22.10;67.33
48968;BME280;46511;53.148;8.204;2022-09-09T14:42:54;100795.56;;;21.92;69.45
48968;BME280;46511;53.148;8.204;2022-09-09T14:45:26;100799.78;;;21.69;71.09
48968;BME280;46511;53.148;8.204;2022-09-09T14:47:57;100792.25;;;21.55;71.23
48968;BME280;46511;53.148;8.204;2022-09-09T14:50:30;100789.13;;;22.19;68.74
48968;BME280;46511;53.148;8.204;2022-09-09T14:53:01;100786.44;;;21.93;69.34
48968;BME280;46511;53.148;8.204;2022-09-09T14:55:33;100776.44;;;22.20;68.03
48968;BME280;46511;53.148;8.204;2022-09-09T14:58:04;100772.22;;;21.91;69.48
48968;BME280;46511;53.148;8.204;2022-09-09T15:00:37;100774.16;;;21.29;71.98
48968;BME280;46511;53.148;8.204;2022-09-09T15:03:09;100777.84;;;20.93;73.18
48968;BME280;46511;53.148;8.204;2022-09-09T15:05:41;100778.53;;;21.48;71.55
48968;BME280;46511;53.148;8.204;2022-09-09T15:08:12;100784.41;;;21.08;72.64
48968;BME280;46511;53.148;8.204;2022-09-09T15:10:46;100786.81;;;21.73;71.45
48968;BME280;46511;53.148;8.204;2022-09-09T15:13:18;100782.94;;;21.31;72.91
48968;BME280;46511;53.148;8.204;2022-09-09T15:15:49;100776.91;;;21.37;72.81
48968;BME280;46511;53.148;8.204;2022-09-09T15:18:21;100787.97;;;21.26;73.18
48968;BME280;46511;53.148;8.204;2022-09-09T15:20:47;100781.69;;;21.26;72.41
48968;BME280;46511;53.148;8.204;2022-09-09T15:23:19;100782.16;;;21.21;71.35
48968;BME280;46511;53.148;8.204;2022-09-09T15:25:53;100780.31;;;21.39;70.64
48968;BME280;46511;53.148;8.204;2022-09-09T15:28:26;100782.94;;;21.75;69.33
48968;BME280;46511;53.148;8.204;2022-09-09T15:30:57;100785.84;;;21.56;68.31
48968;BME280;46511;53.148;8.204;2022-09-09T15:33:28;100777.22;;;20.99;68.75
48968;BME280;46511;53.148;8.204;2022-09-09T15:36:00;100774.44;;;20.91;68.32
48968;BME280;46511;53.148;8.204;2022-09-09T15:38:31;100780.28;;;20.41;69.57
48968;BME280;46511;53.148;8.204;2022-09-09T15:41:02;100778.28;;;20.15;71.63
48968;BME280;46511;53.148;8.204;2022-09-09T15:43:29;100780.59;;;20.38;71.42